createdAt,value
2022-10-23T00:01:39.613Z,87.68
2022-10-23T00:07:59.590Z,87.88
2022-10-23T00:14:22.666Z,88.05
2022-10-23T00:20:42.553Z,88.14
2022-10-23T00:27:05.607Z,88.04
2022-10-23T00:33:25.618Z,88.21
2022-10-23T00:39:48.574Z,88.3
2022-10-23T00:46:08.568Z,88.28
2022-10-23T00:52:31.586Z,88.53
2022-10-23T00:58:51.562Z,88.41
2022-10-23T01:05:14.578Z,88.5
2022-10-23T01:11:34.633Z,88.43
2022-10-23T01:17:57.573Z,88.32
2022-10-23T01:24:18.544Z,88.08
2022-10-23T01:37:00.619Z,88.41
2022-10-23T01:43:23.579Z,88.3
2022-10-23T01:49:43.593Z,88.28
2022-10-23T01:56:06.641Z,88.26
2022-10-23T02:02:26.633Z,88.61
2022-10-23T02:08:49.633Z,88.83
2022-10-23T02:15:09.585Z,88.92
2022-10-23T02:21:32.596Z,88.89
2022-10-23T02:27:52.613Z,89.02
2022-10-23T02:34:15.595Z,89.16
2022-10-23T02:40:35.561Z,89.25
2022-10-23T02:46:58.620Z,89.39
2022-10-23T02:53:18.580Z,89.41
2022-10-23T02:59:41.573Z,89.31
2022-10-23T03:06:01.586Z,89.25
2022-10-23T03:12:24.593Z,89.37
2022-10-23T03:18:44.623Z,89.23
2022-10-23T03:25:07.594Z,89.31
2022-10-23T03:48:13.110Z,88.73
2022-10-23T03:54:32.571Z,88.42
2022-10-23T04:00:55.793Z,88.54
2022-10-23T04:07:15.581Z,88.68
2022-10-23T04:13:38.555Z,88.71
2022-10-23T04:19:58.561Z,88.55
2022-10-23T04:26:21.592Z,88.45
2022-10-23T04:32:41.582Z,88.23
2022-10-23T04:39:04.565Z,88.26
2022-10-23T04:45:24.594Z,88.25
2022-10-23T04:51:47.574Z,88.34
2022-10-23T04:58:07.582Z,88.44
2022-10-23T05:04:30.626Z,88.35
2022-10-23T05:10:50.602Z,88.13
2022-10-23T05:17:13.574Z,87.97
2022-10-23T05:23:33.616Z,87.7
2022-10-23T05:29:56.566Z,87.94
2022-10-23T05:36:16.592Z,87.92
2022-10-23T05:42:40.946Z,87.88
2022-10-23T05:55:23.629Z,88.13
2022-10-23T06:01:43.705Z,88.07
2022-10-23T06:08:06.631Z,88.23
2022-10-23T06:14:26.867Z,88.28
2022-10-23T06:20:49.590Z,88.23
2022-10-23T06:27:09.588Z,88.15
2022-10-23T06:33:32.567Z,87.63
2022-10-23T06:39:52.637Z,87.32
2022-10-23T06:46:15.615Z,87.21
2022-10-23T06:52:46.292Z,87.17
2022-10-23T06:58:58.601Z,86.89
2022-10-23T07:05:18.590Z,86.58
2022-10-23T07:11:41.609Z,86.2
2022-10-23T07:18:01.611Z,85.35
2022-10-23T07:24:24.589Z,85.1
2022-10-23T07:30:44.623Z,85.04
2022-10-23T07:37:07.650Z,84.61
2022-10-23T07:43:27.664Z,84.29
2022-10-23T07:49:50.608Z,84.32
2022-10-23T07:56:10.612Z,84.09
2022-10-23T08:02:33.637Z,83.66
2022-10-23T08:08:53.636Z,83.42
2022-10-23T08:15:16.631Z,83.53
2022-10-23T08:21:36.593Z,83.22
2022-10-23T08:28:01.115Z,82.3
2022-10-23T08:34:19.636Z,81.37
2022-10-23T08:40:42.570Z,81.47
2022-10-23T09:03:31.121Z,79.11
2022-10-23T09:09:50.579Z,78.44
2022-10-23T09:16:13.614Z,77.44
2022-10-23T09:22:33.596Z,77.45
2022-10-23T09:28:56.602Z,73.99
2022-10-23T09:35:16.587Z,74.22
2022-10-23T09:41:39.609Z,73.15
2022-10-23T09:47:59.604Z,73.8
2022-10-23T09:54:22.598Z,72.88
2022-10-23T10:00:42.635Z,73.56
2022-10-23T10:07:05.616Z,72.11
2022-10-23T10:13:25.569Z,71.81
2022-10-23T10:19:48.633Z,71.98
2022-10-23T10:26:08.595Z,71.19
2022-10-23T10:32:31.609Z,71.77
2022-10-23T10:38:51.630Z,72.75
2022-10-23T10:45:14.590Z,73.36
2022-10-23T10:51:34.623Z,73.6
2022-10-23T10:57:59.188Z,73.96
2022-10-23T11:04:17.561Z,73.99
2022-10-23T11:10:40.584Z,75.07
2022-10-23T11:17:00.620Z,75.25
2022-10-23T11:23:23.590Z,77.08
2022-10-23T11:29:43.576Z,78.18
2022-10-23T11:36:06.626Z,79.25
2022-10-23T11:42:26.600Z,78.77
2022-10-23T11:48:49.561Z,77.08
2022-10-23T11:55:09.620Z,76.71
2022-10-23T12:01:32.675Z,75.69
2022-10-23T12:07:52.575Z,74.29
2022-10-23T12:14:15.659Z,73.53
2022-10-23T12:20:35.591Z,72.51
2022-10-23T12:26:58.575Z,73
2022-10-23T12:33:18.605Z,71.77
2022-10-23T12:39:41.595Z,72.33
2022-10-23T12:46:01.610Z,71.04
2022-10-23T12:52:24.701Z,70.93
2022-10-23T12:58:44.564Z,71.31
2022-10-23T13:05:07.585Z,70.95
2022-10-23T13:11:27.608Z,70.27
2022-10-23T13:17:50.604Z,70.48
2022-10-23T13:24:10.573Z,70.39
2022-10-23T13:30:33.606Z,71.03
2022-10-23T13:36:53.822Z,70.88
2022-10-23T13:43:16.594Z,71.31
2022-10-23T13:49:36.661Z,71.4
2022-10-23T13:55:59.585Z,71.68
2022-10-23T14:02:19.707Z,71.56
2022-10-23T14:08:42.602Z,71.89
2022-10-23T14:15:02.579Z,73.24
2022-10-23T14:30:37.509Z,74.1
2022-10-23T14:37:07.916Z,74.21
2022-10-23T14:43:20.565Z,74.35
2022-10-23T14:49:40.617Z,74.84
2022-10-23T14:56:03.607Z,74.88
2022-10-23T15:02:23.596Z,75.27
2022-10-23T15:08:46.598Z,75.62
2022-10-23T15:15:06.562Z,76.26
2022-10-23T15:21:29.630Z,76.75
2022-10-23T15:27:49.619Z,77.18
2022-10-23T15:34:12.640Z,77.35
2022-10-23T15:40:32.571Z,77.41
2022-10-23T15:46:55.606Z,77.73
2022-10-23T15:53:15.584Z,77.64
2022-10-23T15:59:38.575Z,78.18
2022-10-23T16:05:58.614Z,77.93
2022-10-23T16:12:21.610Z,78.24
2022-10-23T16:18:41.551Z,78.36
2022-10-23T16:25:04.653Z,78.56
2022-10-23T16:31:24.580Z,78.79
2022-10-23T16:37:47.588Z,80.13
2022-10-23T16:44:07.615Z,81.94
2022-10-23T16:50:30.604Z,84.87
2022-10-23T16:56:50.621Z,86.81
2022-10-23T17:03:13.623Z,88.56
2022-10-23T17:09:33.574Z,89.65
2022-10-23T17:15:56.590Z,90.48
2022-10-23T17:22:16.753Z,90.9
2022-10-23T17:28:39.827Z,91.28
2022-10-23T17:34:59.843Z,91.52
2022-10-23T17:41:22.613Z,91.9
2022-10-23T17:47:42.565Z,92.1
2022-10-23T17:54:05.563Z,92.06
2022-10-23T18:00:25.645Z,92.04
2022-10-23T18:06:48.566Z,91.86
2022-10-23T18:13:08.774Z,91.8
2022-10-23T18:19:31.590Z,91.59
2022-10-23T18:25:51.596Z,91.55
2022-10-23T18:32:14.581Z,91.41
2022-10-23T18:38:34.606Z,91.34
2022-10-23T18:44:57.587Z,91.52
2022-10-23T18:51:17.563Z,91.68
2022-10-23T18:57:40.655Z,91.81
2022-10-23T19:04:00.607Z,91.85
2022-10-23T19:10:23.567Z,91.89
2022-10-23T19:16:43.614Z,92.04
2022-10-23T19:23:06.572Z,92.03
2022-10-23T19:29:26.576Z,92.16
2022-10-23T19:53:08.565Z,92.19
2022-10-23T19:59:31.566Z,92.34
2022-10-23T20:05:51.593Z,92.34
2022-10-23T20:12:14.609Z,92.45
2022-10-23T20:18:34.585Z,92.46
2022-10-23T20:24:57.638Z,92.58
2022-10-23T20:31:17.891Z,92.53
2022-10-23T20:37:40.604Z,92.7
2022-10-23T20:44:00.642Z,92.61
2022-10-23T20:50:23.596Z,92.4
2022-10-23T20:56:43.609Z,92.38
2022-10-23T21:03:06.583Z,92.39
2022-10-23T21:09:26.592Z,92.52
2022-10-23T21:15:49.577Z,92.63
2022-10-23T21:22:09.558Z,92.56
2022-10-23T21:28:32.615Z,92.41
2022-10-23T21:34:52.570Z,92.38
2022-10-23T21:41:15.574Z,92.12
2022-10-23T21:47:35.618Z,91.91
2022-10-23T21:53:58.589Z,91.76
2022-10-23T22:00:18.643Z,91.26
2022-10-23T22:23:15.586Z,88.96
2022-10-23T22:29:35.587Z,89.11
2022-10-23T22:35:58.564Z,89.18
2022-10-23T22:42:18.613Z,88.58
2022-10-23T22:48:41.561Z,88.7
2022-10-23T22:55:01.583Z,88.85
2022-10-23T23:01:24.703Z,89.11
2022-10-23T23:07:44.735Z,89.54
2022-10-23T23:14:07.585Z,89.74
2022-10-23T23:20:27.619Z,89.91
2022-10-23T23:26:50.572Z,89.57
2022-10-23T23:33:10.568Z,89.66
2022-10-23T23:39:33.645Z,89.53
2022-10-23T23:45:53.606Z,89.67
2022-10-23T23:52:16.591Z,90.32
2022-10-23T23:58:36.610Z,90.56
